createdAt,value
2022-12-26T00:00:17.666Z,91.61
2022-12-26T00:01:09.850Z,91.58
2022-12-26T00:01:57.478Z,91.50
2022-12-26T00:02:44.472Z,91.55
2022-12-26T00:03:31.581Z,90.93
2022-12-26T00:04:51.149Z,90.94
2022-12-26T00:05:26.208Z,90.94
2022-12-26T00:06:15.814Z,91.38
2022-12-26T00:07:02.787Z,91.37
2022-12-26T00:07:49.673Z,91.37
2022-12-26T00:08:39.330Z,91.74
2022-12-26T00:09:26.290Z,91.76
2022-12-26T00:10:13.279Z,91.60
2022-12-26T00:11:00.238Z,91.20
2022-12-26T00:11:47.184Z,91.02
2022-12-26T00:12:36.094Z,91.22
2022-12-26T00:13:40.231Z,91.01
2022-12-26T00:14:27.913Z,90.43
2022-12-26T00:15:14.853Z,90.58
2022-12-26T00:16:13.710Z,91.20
2022-12-26T00:17:00.725Z,91.53
2022-12-26T00:17:47.583Z,91.62
2022-12-26T00:18:34.769Z,91.43
2022-12-26T00:19:21.648Z,91.13
2022-12-26T00:20:09.161Z,91.12
2022-12-26T00:20:56.080Z,91.65
2022-12-26T00:21:43.008Z,91.45
2022-12-26T00:22:29.925Z,91.13
2022-12-26T00:23:16.879Z,91.38
2022-12-26T00:24:04.471Z,91.46
2022-12-26T00:24:51.715Z,91.65
2022-12-26T00:25:38.697Z,91.58
2022-12-26T00:26:30.290Z,91.46
2022-12-26T00:27:17.248Z,91.54
2022-12-26T00:28:04.294Z,91.21
2022-12-26T00:28:51.516Z,91.50
2022-12-26T00:29:38.443Z,91.50
2022-12-26T00:30:25.774Z,91.83
2022-12-26T00:31:27.628Z,91.71
2022-12-26T00:32:14.607Z,92.35
2022-12-26T00:33:01.577Z,92.19
2022-12-26T00:33:48.613Z,92.49
2022-12-26T00:34:35.525Z,92.55
2022-12-26T00:35:22.459Z,92.73
2022-12-26T00:36:13.237Z,92.62
2022-12-26T00:37:00.147Z,92.06
2022-12-26T00:37:47.065Z,91.59
2022-12-26T00:38:38.039Z,91.66
2022-12-26T00:39:27.048Z,91.83
2022-12-26T00:40:13.919Z,92.08
2022-12-26T00:41:01.046Z,92.23
2022-12-26T00:41:47.926Z,92.38
2022-12-26T00:42:34.865Z,92.38
2022-12-26T00:43:21.779Z,91.91
2022-12-26T00:44:08.792Z,91.91
2022-12-26T00:44:55.833Z,91.85
2022-12-26T00:45:45.299Z,91.91
2022-12-26T00:46:32.377Z,92.54
2022-12-26T00:47:19.317Z,93.39
2022-12-26T00:48:06.367Z,93.58
2022-12-26T00:48:53.715Z,93.65
2022-12-26T00:50:12.540Z,93.51
2022-12-26T00:50:47.637Z,93.01
2022-12-26T00:51:34.519Z,92.58
2022-12-26T00:52:22.030Z,93.69
2022-12-26T00:53:08.978Z,94.05
2022-12-26T00:53:55.892Z,93.33
2022-12-26T00:54:42.935Z,92.66
2022-12-26T00:55:29.876Z,92.54
2022-12-26T00:56:16.972Z,93.27
2022-12-26T00:57:03.986Z,93.53
2022-12-26T00:57:50.958Z,93.79
2022-12-26T00:58:38.087Z,94.18
2022-12-26T00:59:25.147Z,94.49
2022-12-26T01:00:12.900Z,94.75
2022-12-26T01:01:16.889Z,94.71
2022-12-26T01:02:23.938Z,95.02
2022-12-26T01:03:12.323Z,94.62
2022-12-26T01:03:59.375Z,93.97
2022-12-26T01:04:46.278Z,94.08
2022-12-26T01:05:33.247Z,93.36
2022-12-26T01:06:23.242Z,93.84
2022-12-26T01:07:10.127Z,93.98
2022-12-26T01:08:20.545Z,94.22
2022-12-26T01:09:03.960Z,94.52
2022-12-26T01:09:50.869Z,95.27
2022-12-26T01:10:41.107Z,95.28
2022-12-26T01:11:43.125Z,94.91
2022-12-26T01:12:30.884Z,94.58
2022-12-26T01:13:17.814Z,94.94
2022-12-26T01:14:05.403Z,94.87
2022-12-26T01:14:54.827Z,95.05
2022-12-26T01:15:48.860Z,94.54
2022-12-26T01:16:35.854Z,94.57
2022-12-26T01:17:22.926Z,94.76
2022-12-26T01:18:09.816Z,94.54
2022-12-26T01:18:56.780Z,94.49
2022-12-26T01:19:43.624Z,93.66
2022-12-26T01:20:30.776Z,93.15
2022-12-26T01:21:17.704Z,93.31
2022-12-26T01:22:04.622Z,93.48
2022-12-26T01:22:51.517Z,93.85
2022-12-26T01:23:38.435Z,93.91
2022-12-26T01:24:25.319Z,93.59
2022-12-26T01:25:12.416Z,93.69
2022-12-26T01:26:18.945Z,93.49
2022-12-26T01:27:06.336Z,93.58
2022-12-26T01:27:53.279Z,93.22
2022-12-26T01:28:40.176Z,93.62
2022-12-26T01:29:27.076Z,93.64
2022-12-26T01:30:14.051Z,92.85
2022-12-26T01:31:04.666Z,93.02
2022-12-26T01:31:51.428Z,93.19
2022-12-26T01:32:40.757Z,93.16
2022-12-26T01:33:27.699Z,92.92
2022-12-26T01:34:14.619Z,92.35
2022-12-26T01:35:01.545Z,91.49
2022-12-26T01:35:53.238Z,91.81
2022-12-26T01:36:40.216Z,92.16
2022-12-26T01:37:27.839Z,92.36
2022-12-26T01:38:14.819Z,92.28
2022-12-26T01:39:48.756Z,92.28
2022-12-26T01:40:35.727Z,92.59
2022-12-26T01:41:22.629Z,92.56
2022-12-26T01:42:17.908Z,92.82
2022-12-26T01:43:06.618Z,92.94
2022-12-26T01:43:55.270Z,93.11
2022-12-26T01:45:02.652Z,92.99
2022-12-26T01:45:51.221Z,93.13
2022-12-26T01:46:44.637Z,93.14
2022-12-26T01:47:41.857Z,92.83
2022-12-26T01:48:34.669Z,93.28
2022-12-26T01:49:31.019Z,93.65
2022-12-26T01:50:56.185Z,93.02
2022-12-26T01:51:57.966Z,92.70
2022-12-26T01:52:47.308Z,93.02
2022-12-26T01:53:40.586Z,92.60
2022-12-26T01:54:40.773Z,92.55
2022-12-26T01:55:30.293Z,92.67
2022-12-26T01:56:22.654Z,93.15
2022-12-26T01:57:17.978Z,93.03
2022-12-26T01:58:13.217Z,93.26
2022-12-26T01:59:07.407Z,93.66
2022-12-26T01:59:55.757Z,93.43
2022-12-26T02:00:42.997Z,92.94
2022-12-26T02:01:32.480Z,92.39
2022-12-26T02:02:21.201Z,92.21
2022-12-26T02:03:27.712Z,92.13
2022-12-26T02:04:36.566Z,92.01
2022-12-26T02:05:35.647Z,91.99
2022-12-26T02:06:22.751Z,92.49
2022-12-26T02:07:09.928Z,92.70
2022-12-26T02:07:57.149Z,92.25
2022-12-26T02:08:45.427Z,92.16
2022-12-26T02:09:32.708Z,92.04
2022-12-26T02:10:23.156Z,92.05
2022-12-26T02:11:35.455Z,91.84
2022-12-26T02:12:41.228Z,91.37
2022-12-26T02:13:29.965Z,91.67
2022-12-26T02:14:16.856Z,91.28
2022-12-26T02:15:05.929Z,91.28
2022-12-26T02:15:52.967Z,91.48
2022-12-26T02:16:40.344Z,91.25
2022-12-26T02:17:27.935Z,91.83
2022-12-26T02:18:17.101Z,92.25
2022-12-26T02:19:05.047Z,92.20
2022-12-26T02:20:07.546Z,92.13
2022-12-26T02:21:18.875Z,92.23
2022-12-26T02:22:12.635Z,92.14
2022-12-26T02:23:33.534Z,92.02
2022-12-26T02:24:58.847Z,92.12
2022-12-26T02:26:07.107Z,92.33
2022-12-26T02:27:27.716Z,92.00
2022-12-26T02:28:35.471Z,91.95
2022-12-26T02:29:27.871Z,91.69
2022-12-26T02:30:36.638Z,91.48
2022-12-26T02:31:49.692Z,91.42
2022-12-26T02:33:02.443Z,91.73
2022-12-26T02:34:20.009Z,92.31
2022-12-26T02:35:39.430Z,92.30
2022-12-26T02:36:51.266Z,91.94
2022-12-26T02:37:53.223Z,92.59
2022-12-26T02:39:44.329Z,92.39
2022-12-26T02:40:15.677Z,92.00
2022-12-26T02:41:29.746Z,91.91
2022-12-26T02:42:42.621Z,92.45
2022-12-26T02:43:57.535Z,92.90
2022-12-26T02:45:28.226Z,92.72
2022-12-26T02:47:00.528Z,92.68
2022-12-26T02:48:09.834Z,92.24
2022-12-26T02:49:05.418Z,91.93
2022-12-26T02:50:17.837Z,91.21
2022-12-26T02:51:35.799Z,90.85
2022-12-26T02:52:48.978Z,91.02
2022-12-26T02:54:12.245Z,90.19
2022-12-26T02:55:26.148Z,90.51
2022-12-26T02:56:42.743Z,91.34
2022-12-26T02:57:54.955Z,91.73
2022-12-26T02:59:13.747Z,91.69
2022-12-26T03:00:19.264Z,91.63
2022-12-26T03:01:31.659Z,91.32
2022-12-26T03:02:46.764Z,90.80
2022-12-26T03:03:53.973Z,90.94
2022-12-26T03:05:00.434Z,90.96
2022-12-26T03:06:19.455Z,90.96
2022-12-26T03:07:32.697Z,91.59
2022-12-26T03:08:47.181Z,90.83
2022-12-26T03:09:57.044Z,90.83
2022-12-26T03:11:03.080Z,91.27
2022-12-26T03:12:12.220Z,91.64
2022-12-26T03:13:12.015Z,91.60
2022-12-26T03:14:08.241Z,91.87
2022-12-26T03:14:58.595Z,91.62
2022-12-26T03:16:26.773Z,91.74
2022-12-26T03:17:26.970Z,91.52
2022-12-26T03:18:13.908Z,91.93
2022-12-26T03:19:05.496Z,92.59
2022-12-26T03:20:02.561Z,92.36
2022-12-26T03:20:49.929Z,92.39
2022-12-26T03:21:45.868Z,92.08
2022-12-26T03:22:53.191Z,92.20
2022-12-26T03:23:41.932Z,92.11
2022-12-26T03:24:48.827Z,92.16
2022-12-26T03:25:54.465Z,92.13
2022-12-26T03:26:52.050Z,92.40
2022-12-26T03:27:38.971Z,92.79
2022-12-26T03:28:26.405Z,92.96
2022-12-26T03:29:40.767Z,93.04
2022-12-26T03:30:46.361Z,92.70
2022-12-26T03:31:33.494Z,92.47
2022-12-26T03:32:20.397Z,92.65
2022-12-26T03:33:27.830Z,92.43
2022-12-26T03:34:17.439Z,92.20
2022-12-26T03:35:12.921Z,91.80
2022-12-26T03:36:00.814Z,92.12
2022-12-26T03:38:11.768Z,91.71
2022-12-26T03:39:12.319Z,91.59
2022-12-26T03:40:23.897Z,91.47
2022-12-26T03:41:52.815Z,91.55
2022-12-26T03:43:23.590Z,91.23
2022-12-26T03:44:39.329Z,91.32
2022-12-26T03:46:13.694Z,92.11
2022-12-26T03:47:43.064Z,91.69
2022-12-26T03:48:57.137Z,91.26
2022-12-26T03:50:10.020Z,91.66
2022-12-26T03:51:24.598Z,91.81
2022-12-26T03:52:43.167Z,91.83
2022-12-26T03:53:51.604Z,91.72
2022-12-26T03:57:11.490Z,92.03
2022-12-26T03:58:50.870Z,93.05
2022-12-26T04:00:02.988Z,93.38
2022-12-26T04:01:13.841Z,93.25
2022-12-26T04:02:29.081Z,93.62
2022-12-26T04:03:36.176Z,94.02
2022-12-26T04:04:43.916Z,93.34
2022-12-26T04:05:49.939Z,92.44
2022-12-26T04:07:18.436Z,92.33
2022-12-26T04:08:31.917Z,92.77
2022-12-26T04:09:48.127Z,92.68
2022-12-26T04:11:00.238Z,92.42
2022-12-26T04:12:05.655Z,92.86
2022-12-26T04:13:11.961Z,92.77
2022-12-26T04:14:39.998Z,92.08
2022-12-26T04:16:02.412Z,91.66
2022-12-26T04:17:19.707Z,91.08
2022-12-26T04:18:39.815Z,91.28
2022-12-26T04:19:52.033Z,90.76
2022-12-26T04:20:51.938Z,90.90
2022-12-26T04:22:21.363Z,90.52
2022-12-26T04:23:39.832Z,90.47
2022-12-26T04:24:48.138Z,90.20
2022-12-26T04:26:13.971Z,89.71
2022-12-26T04:27:21.524Z,89.11
2022-12-26T04:28:27.117Z,89.57
2022-12-26T04:29:32.708Z,89.80
2022-12-26T04:30:38.188Z,90.53
2022-12-26T04:31:53.416Z,90.26
2022-12-26T04:33:02.697Z,89.70
2022-12-26T04:34:12.763Z,89.75
2022-12-26T04:35:28.857Z,89.45
2022-12-26T04:36:39.667Z,89.99
2022-12-26T04:37:47.624Z,90.24
2022-12-26T04:39:01.476Z,91.21
2022-12-26T04:40:11.880Z,90.95
2022-12-26T04:41:19.274Z,90.83
2022-12-26T04:42:25.797Z,91.02
2022-12-26T04:43:50.443Z,90.72
2022-12-26T04:44:38.740Z,90.96
2022-12-26T04:45:26.674Z,90.87
2022-12-26T04:46:14.585Z,90.67
2022-12-26T04:47:01.502Z,90.75
2022-12-26T04:48:10.442Z,90.90
2022-12-26T04:49:17.028Z,90.84
2022-12-26T04:50:13.227Z,91.44
2022-12-26T04:51:00.150Z,91.47
2022-12-26T04:51:50.055Z,91.05
2022-12-26T04:52:55.576Z,90.84
2022-12-26T04:53:42.555Z,91.13
2022-12-26T04:54:32.601Z,91.45
2022-12-26T04:55:19.566Z,91.48
2022-12-26T04:56:06.629Z,91.20
2022-12-26T04:56:53.768Z,91.27
2022-12-26T04:57:40.648Z,91.45
2022-12-26T04:58:30.538Z,91.68
2022-12-26T04:59:18.010Z,91.78
2022-12-26T05:00:05.711Z,91.73
2022-12-26T05:00:52.667Z,91.88
2022-12-26T05:01:58.450Z,91.91
2022-12-26T05:03:03.983Z,91.47
2022-12-26T05:04:09.837Z,90.59
2022-12-26T05:05:15.617Z,90.47
2022-12-26T05:06:21.315Z,90.87
2022-12-26T05:07:34.331Z,91.61
2022-12-26T05:09:00.637Z,91.52
2022-12-26T05:09:51.110Z,91.50
2022-12-26T05:10:38.184Z,91.24
2022-12-26T05:11:25.871Z,90.99
2022-12-26T05:12:12.848Z,91.03
2022-12-26T05:12:59.790Z,91.33
2022-12-26T05:13:47.238Z,90.77
2022-12-26T05:14:36.185Z,90.78
2022-12-26T05:15:23.253Z,90.83
2022-12-26T05:16:29.043Z,91.43
2022-12-26T05:17:34.758Z,91.58
2022-12-26T05:18:41.890Z,91.31
2022-12-26T05:19:47.301Z,90.92
2022-12-26T05:20:46.678Z,91.06
2022-12-26T05:21:52.471Z,90.80
2022-12-26T05:23:01.721Z,91.10
2022-12-26T05:24:07.051Z,91.35
2022-12-26T05:25:12.986Z,92.04
2022-12-26T05:26:20.216Z,92.12
2022-12-26T05:27:31.574Z,91.47
2022-12-26T05:28:37.467Z,91.58
2022-12-26T05:29:25.896Z,91.78
2022-12-26T05:30:12.827Z,91.85
2022-12-26T05:31:02.203Z,91.90
2022-12-26T05:31:49.190Z,91.87
2022-12-26T05:32:54.726Z,91.91
2022-12-26T05:34:00.321Z,91.79
2022-12-26T05:34:47.184Z,91.93
2022-12-26T05:35:34.876Z,92.03
2022-12-26T05:36:23.806Z,93.08
2022-12-26T05:37:10.717Z,93.35
2022-12-26T05:37:57.696Z,93.46
2022-12-26T05:38:44.590Z,93.36
2022-12-26T05:39:31.530Z,93.15
2022-12-26T05:40:18.453Z,92.81
2022-12-26T05:41:05.775Z,92.47
2022-12-26T05:41:52.678Z,92.47
2022-12-26T05:42:39.634Z,93.32
2022-12-26T05:43:26.696Z,93.30
2022-12-26T05:44:13.775Z,93.15
2022-12-26T05:45:00.669Z,92.92
2022-12-26T05:45:47.566Z,93.10
2022-12-26T05:46:35.155Z,92.50
2022-12-26T05:47:22.990Z,92.97
2022-12-26T05:48:09.947Z,93.18
2022-12-26T05:48:57.062Z,93.26
2022-12-26T05:49:43.960Z,93.36
2022-12-26T05:50:30.959Z,93.71
2022-12-26T05:51:17.853Z,93.01
2022-12-26T05:52:04.992Z,92.77
2022-12-26T05:52:51.932Z,92.51
2022-12-26T05:53:38.785Z,93.29
2022-12-26T05:54:25.767Z,93.34
2022-12-26T05:55:12.676Z,93.01
2022-12-26T05:56:05.307Z,92.71
2022-12-26T05:56:53.829Z,93.08
2022-12-26T05:57:40.708Z,92.96
2022-12-26T05:58:27.607Z,92.89
2022-12-26T05:59:14.530Z,92.99
2022-12-26T06:00:01.447Z,93.12
2022-12-26T06:00:48.446Z,93.71
2022-12-26T06:01:35.538Z,93.44
2022-12-26T06:02:22.598Z,93.66
2022-12-26T06:03:09.781Z,93.75
2022-12-26T06:03:58.320Z,93.84
2022-12-26T06:04:45.380Z,93.40
2022-12-26T06:05:32.304Z,93.23
2022-12-26T06:06:20.298Z,92.41
2022-12-26T06:07:07.238Z,92.60
2022-12-26T06:07:54.183Z,92.70
2022-12-26T06:08:41.429Z,92.41
2022-12-26T06:09:28.394Z,92.18
2022-12-26T06:10:15.430Z,91.95
2022-12-26T06:11:10.328Z,91.93
2022-12-26T06:11:57.243Z,91.82
2022-12-26T06:12:45.192Z,91.85
2022-12-26T06:13:32.524Z,92.33
2022-12-26T06:14:19.438Z,92.72
2022-12-26T06:15:07.044Z,92.45
2022-12-26T06:15:56.849Z,92.11
2022-12-26T06:16:43.969Z,91.77
2022-12-26T06:17:30.936Z,92.10
2022-12-26T06:18:17.872Z,92.29
2022-12-26T06:19:05.177Z,92.51
2022-12-26T06:19:52.119Z,92.61
2022-12-26T06:20:41.707Z,92.39
2022-12-26T06:21:28.649Z,92.02
2022-12-26T06:22:15.575Z,91.83
2022-12-26T06:23:02.549Z,92.10
2022-12-26T06:23:50.227Z,92.00
2022-12-26T06:24:37.128Z,91.97
2022-12-26T06:25:24.179Z,91.60
2022-12-26T06:26:12.824Z,91.75
2022-12-26T06:26:59.771Z,92.38
2022-12-26T06:27:46.830Z,92.30
2022-12-26T06:28:35.441Z,91.90
2022-12-26T06:29:22.398Z,91.43
2022-12-26T06:30:09.665Z,91.71
2022-12-26T06:31:03.549Z,92.14
2022-12-26T06:31:50.537Z,92.46
2022-12-26T06:32:39.552Z,92.62
2022-12-26T06:33:26.597Z,92.52
2022-12-26T06:34:13.738Z,92.54
2022-12-26T06:35:00.664Z,92.61
2022-12-26T06:35:47.594Z,92.29
2022-12-26T06:36:34.554Z,92.39
2022-12-26T06:37:21.462Z,92.49
2022-12-26T06:38:08.423Z,92.48
2022-12-26T06:38:55.801Z,92.60
2022-12-26T06:39:42.687Z,92.97
2022-12-26T06:40:29.601Z,93.03
2022-12-26T06:41:20.737Z,92.68
2022-12-26T06:42:07.652Z,92.93
2022-12-26T06:42:54.576Z,93.04
2022-12-26T06:43:41.734Z,92.94
2022-12-26T06:44:28.728Z,92.63
2022-12-26T06:45:15.636Z,92.73
2022-12-26T06:46:04.382Z,92.81
2022-12-26T06:46:51.321Z,92.61
2022-12-26T06:47:38.270Z,92.65
2022-12-26T06:48:25.411Z,92.63
2022-12-26T06:49:12.291Z,92.37
2022-12-26T06:49:59.185Z,92.59
2022-12-26T06:50:46.066Z,92.72
2022-12-26T06:51:33.797Z,92.59
2022-12-26T06:52:20.699Z,92.60
2022-12-26T06:53:07.599Z,92.76
2022-12-26T06:53:55.255Z,92.75
2022-12-26T06:54:42.187Z,92.28
2022-12-26T06:55:29.177Z,92.18
2022-12-26T06:56:24.766Z,92.10
2022-12-26T06:57:11.717Z,91.92
2022-12-26T06:57:58.596Z,91.99
2022-12-26T06:58:51.597Z,91.69
2022-12-26T06:59:38.469Z,92.09
2022-12-26T07:00:25.439Z,92.46
2022-12-26T07:01:15.175Z,92.22
2022-12-26T07:02:02.374Z,91.84
2022-12-26T07:02:50.773Z,91.31
2022-12-26T07:03:38.387Z,91.43
2022-12-26T07:04:25.833Z,91.19
2022-12-26T07:05:14.588Z,91.03
2022-12-26T07:06:11.428Z,90.86
2022-12-26T07:07:00.921Z,90.73
2022-12-26T07:07:52.599Z,90.69
2022-12-26T07:08:39.529Z,90.54
2022-12-26T07:09:33.198Z,90.55
2022-12-26T07:10:21.235Z,90.51
2022-12-26T07:11:14.677Z,91.99
2022-12-26T07:12:01.665Z,92.00
2022-12-26T07:12:50.949Z,91.72
2022-12-26T07:13:37.865Z,91.58
2022-12-26T07:14:24.796Z,92.25
2022-12-26T07:15:12.052Z,92.00
2022-12-26T07:16:00.217Z,91.61
2022-12-26T07:16:47.221Z,91.44
2022-12-26T07:17:34.185Z,91.15
2022-12-26T07:18:21.139Z,90.78
2022-12-26T07:19:09.718Z,90.59
2022-12-26T07:19:56.679Z,90.55
2022-12-26T07:20:43.578Z,90.66
2022-12-26T07:21:36.358Z,90.52
2022-12-26T07:22:26.899Z,90.71
2022-12-26T07:23:13.896Z,91.67
2022-12-26T07:24:00.810Z,91.55
2022-12-26T07:24:47.700Z,91.42
2022-12-26T07:25:37.586Z,91.29
2022-12-26T07:26:26.264Z,91.26
2022-12-26T07:27:13.167Z,91.02
2022-12-26T07:28:00.741Z,91.01
2022-12-26T07:28:47.881Z,91.18
2022-12-26T07:29:34.997Z,90.98
2022-12-26T07:30:22.031Z,91.36
2022-12-26T07:31:09.037Z,91.19
2022-12-26T07:31:57.834Z,90.77
2022-12-26T07:32:44.950Z,91.05
2022-12-26T07:33:32.059Z,91.04
2022-12-26T07:34:19.088Z,90.80
2022-12-26T07:35:06.339Z,90.27
2022-12-26T07:35:53.365Z,90.28
2022-12-26T07:36:40.925Z,89.97
2022-12-26T07:37:27.791Z,89.88
2022-12-26T07:38:14.725Z,89.54
2022-12-26T07:39:01.645Z,89.65
2022-12-26T07:39:52.390Z,89.49
2022-12-26T07:40:42.145Z,89.27
2022-12-26T07:41:48.429Z,89.19
2022-12-26T07:42:35.427Z,88.86
2022-12-26T07:43:22.601Z,88.58
2022-12-26T07:44:10.775Z,88.14
2022-12-26T07:44:57.712Z,87.82
2022-12-26T07:45:46.044Z,87.33
2022-12-26T07:46:33.592Z,87.04
2022-12-26T07:47:20.767Z,86.86
2022-12-26T07:48:07.962Z,86.51
2022-12-26T07:48:54.887Z,86.36
2022-12-26T07:49:41.844Z,86.17
2022-12-26T07:50:29.274Z,85.85
2022-12-26T07:51:18.003Z,85.21
2022-12-26T07:52:05.097Z,84.89
2022-12-26T07:52:52.215Z,84.67
2022-12-26T07:53:39.216Z,84.84
2022-12-26T07:54:28.385Z,85.02
2022-12-26T07:55:15.529Z,84.95
2022-12-26T07:56:04.060Z,84.23
2022-12-26T07:56:50.929Z,83.58
2022-12-26T07:57:48.588Z,83.10
2022-12-26T07:58:36.252Z,83.08
2022-12-26T07:59:23.207Z,83.05
2022-12-26T08:00:13.517Z,84.57
2022-12-26T08:01:04.567Z,84.17
2022-12-26T08:01:51.964Z,83.75
2022-12-26T08:02:39.166Z,83.23
2022-12-26T08:03:26.197Z,83.02
2022-12-26T08:04:13.830Z,82.64
2022-12-26T08:05:00.718Z,82.28
2022-12-26T08:05:51.094Z,81.85
2022-12-26T08:06:38.207Z,81.52
2022-12-26T08:07:25.125Z,82.04
2022-12-26T08:08:12.056Z,81.89
2022-12-26T08:08:59.005Z,82.47
2022-12-26T08:09:46.122Z,82.22
2022-12-26T08:10:33.044Z,81.83
2022-12-26T08:11:22.963Z,81.22
2022-12-26T08:12:10.019Z,83.05
2022-12-26T08:12:56.887Z,81.10
2022-12-26T08:13:43.837Z,81.17
2022-12-26T08:14:30.770Z,81.32
2022-12-26T08:15:17.766Z,79.58
2022-12-26T08:16:09.403Z,79.63
2022-12-26T08:16:56.443Z,79.51
2022-12-26T08:17:43.441Z,79.51
2022-12-26T08:18:30.369Z,81.57
2022-12-26T08:19:19.663Z,80.34
2022-12-26T08:20:07.235Z,80.29
2022-12-26T08:20:54.181Z,79.51
2022-12-26T08:21:41.143Z,79.37
2022-12-26T08:22:28.199Z,79.32
2022-12-26T08:23:15.118Z,78.90
2022-12-26T08:24:02.101Z,78.72
2022-12-26T08:24:48.988Z,78.01
2022-12-26T08:25:35.928Z,77.98
2022-12-26T08:26:23.569Z,77.70
2022-12-26T08:27:10.990Z,77.10
2022-12-26T08:27:57.876Z,77.28
2022-12-26T08:28:44.812Z,76.83
2022-12-26T08:29:31.795Z,76.91
2022-12-26T08:30:18.667Z,76.78
2022-12-26T08:31:10.818Z,76.71
2022-12-26T08:31:57.726Z,76.74
2022-12-26T08:32:46.336Z,77.84
2022-12-26T08:33:36.390Z,77.14
2022-12-26T08:34:23.347Z,76.50
2022-12-26T08:35:10.334Z,76.70
2022-12-26T08:36:02.389Z,77.22
2022-12-26T08:36:52.727Z,77.15
2022-12-26T08:37:39.657Z,81.77
2022-12-26T08:38:31.943Z,78.14
2022-12-26T08:39:27.775Z,77.02
2022-12-26T08:40:15.572Z,76.78
2022-12-26T08:41:06.239Z,75.71
2022-12-26T08:41:53.199Z,75.26
2022-12-26T08:42:50.048Z,74.81
2022-12-26T08:44:25.171Z,74.98
2022-12-26T08:44:49.884Z,74.87
2022-12-26T08:45:36.820Z,75.58
2022-12-26T08:46:23.886Z,75.56
2022-12-26T08:47:10.846Z,75.70
2022-12-26T08:47:58.446Z,75.32
2022-12-26T08:48:45.980Z,75.16
2022-12-26T08:49:32.915Z,74.63
2022-12-26T08:50:19.936Z,74.93
2022-12-26T08:51:18.019Z,75.17
2022-12-26T08:52:06.688Z,75.66
2022-12-26T08:52:53.588Z,75.49
2022-12-26T08:53:40.959Z,74.81
2022-12-26T08:54:28.467Z,74.27
2022-12-26T08:55:15.445Z,74.24
2022-12-26T08:56:06.768Z,74.74
2022-12-26T08:56:53.635Z,74.13
2022-12-26T08:57:40.611Z,74.29
2022-12-26T08:58:29.203Z,74.27
2022-12-26T08:59:16.429Z,74.28
2022-12-26T09:00:06.231Z,74.96
2022-12-26T09:00:55.387Z,75.24
2022-12-26T09:01:42.729Z,75.01
2022-12-26T09:02:29.843Z,74.91
2022-12-26T09:03:17.134Z,74.69
2022-12-26T09:04:04.775Z,74.80
2022-12-26T09:04:52.159Z,74.62
2022-12-26T09:05:39.069Z,74.38
2022-12-26T09:06:26.820Z,73.85
2022-12-26T09:07:15.896Z,73.79
2022-12-26T09:08:02.816Z,73.52
2022-12-26T09:08:49.781Z,73.54
2022-12-26T09:09:36.830Z,73.92
2022-12-26T09:10:23.771Z,73.90
2022-12-26T09:11:15.877Z,73.34
2022-12-26T09:12:02.807Z,73.89
2022-12-26T09:12:49.717Z,74.78
2022-12-26T09:13:37.527Z,74.61
2022-12-26T09:14:24.445Z,74.09
2022-12-26T09:15:11.356Z,73.95
2022-12-26T09:16:05.938Z,73.58
2022-12-26T09:16:54.551Z,74.19
2022-12-26T09:17:41.531Z,73.67
2022-12-26T09:18:28.479Z,73.68
2022-12-26T09:19:19.366Z,73.44
2022-12-26T09:20:06.957Z,73.21
2022-12-26T09:20:53.837Z,73.00
2022-12-26T09:21:40.931Z,72.79
2022-12-26T09:23:12.329Z,72.81
2022-12-26T09:24:01.183Z,72.91
2022-12-26T09:24:48.106Z,73.08
2022-12-26T09:25:35.193Z,72.77
2022-12-26T09:26:22.049Z,72.81
2022-12-26T09:27:09.390Z,72.27
2022-12-26T09:27:59.298Z,72.37
2022-12-26T09:28:47.279Z,72.41
2022-12-26T09:29:34.243Z,71.75
2022-12-26T09:30:22.703Z,71.79
2022-12-26T09:31:21.583Z,72.31
2022-12-26T09:32:08.524Z,73.08
2022-12-26T09:32:55.641Z,73.31
2022-12-26T09:33:42.769Z,71.72
2022-12-26T09:34:29.614Z,71.92
2022-12-26T09:35:16.633Z,71.61
2022-12-26T09:36:14.291Z,71.06
2022-12-26T09:37:01.691Z,71.04
2022-12-26T09:37:48.581Z,71.31
2022-12-26T09:38:37.684Z,71.49
2022-12-26T09:39:24.596Z,71.16
2022-12-26T09:40:23.873Z,70.54
2022-12-26T09:41:46.114Z,70.28
2022-12-26T09:42:42.044Z,70.70
2022-12-26T09:43:57.781Z,70.14
2022-12-26T09:44:44.680Z,69.67
2022-12-26T09:45:52.875Z,70.30
2022-12-26T09:46:49.311Z,69.99
2022-12-26T09:47:54.281Z,70.26
2022-12-26T09:48:55.039Z,69.50
2022-12-26T09:49:56.273Z,69.20
2022-12-26T09:50:43.606Z,69.50
2022-12-26T09:51:32.175Z,70.05
2022-12-26T09:52:22.654Z,69.41
2022-12-26T09:53:13.098Z,69.71
2022-12-26T09:54:00.975Z,69.75
2022-12-26T09:54:56.900Z,69.69
2022-12-26T09:55:53.406Z,70.36
2022-12-26T09:57:51.405Z,69.60
2022-12-26T09:58:45.340Z,69.36
2022-12-26T09:59:55.864Z,68.98
2022-12-26T10:00:49.461Z,68.54
2022-12-26T10:01:37.491Z,68.21
2022-12-26T10:02:26.735Z,68.53
2022-12-26T10:03:13.691Z,69.02
2022-12-26T10:04:01.409Z,69.14
2022-12-26T10:04:48.635Z,68.87
2022-12-26T10:05:44.683Z,68.73
2022-12-26T10:06:38.381Z,68.81
2022-12-26T10:07:54.564Z,68.80
2022-12-26T10:09:00.126Z,68.54
2022-12-26T10:09:55.579Z,68.85
2022-12-26T10:11:03.494Z,69.00
2022-12-26T10:12:05.832Z,68.80
2022-12-26T10:12:59.569Z,68.56
2022-12-26T10:14:00.351Z,67.91
2022-12-26T10:14:59.369Z,67.74
2022-12-26T10:15:51.404Z,67.61
2022-12-26T10:16:51.365Z,67.72
2022-12-26T10:17:45.151Z,68.07
2022-12-26T10:18:50.654Z,67.68
2022-12-26T10:19:44.172Z,67.64
2022-12-26T10:20:55.605Z,67.74
2022-12-26T10:21:48.479Z,67.82
2022-12-26T10:22:57.253Z,67.79
2022-12-26T10:23:46.701Z,68.29
2022-12-26T10:24:36.522Z,67.66
2022-12-26T10:25:33.445Z,67.70
2022-12-26T10:26:24.350Z,68.42
2022-12-26T10:27:17.151Z,68.49
2022-12-26T10:28:04.871Z,67.83
2022-12-26T10:28:59.624Z,68.36
2022-12-26T10:29:53.731Z,68.94
2022-12-26T10:30:42.255Z,69.04
2022-12-26T10:31:42.558Z,68.67
2022-12-26T10:32:34.684Z,68.56
2022-12-26T10:33:37.680Z,68.04
2022-12-26T10:34:36.441Z,67.84
2022-12-26T10:35:36.340Z,67.89
2022-12-26T10:36:31.633Z,68.05
2022-12-26T10:37:21.692Z,68.58
2022-12-26T10:38:44.250Z,69.22
2022-12-26T10:39:37.317Z,68.45
2022-12-26T10:40:42.741Z,68.59
2022-12-26T10:41:48.440Z,67.87
2022-12-26T10:42:40.393Z,66.92
2022-12-26T10:43:34.088Z,66.86
2022-12-26T10:44:27.214Z,67.43
2022-12-26T10:45:24.587Z,67.83
2022-12-26T10:46:14.965Z,67.83
2022-12-26T10:47:25.196Z,68.75
2022-12-26T10:48:15.074Z,69.41
2022-12-26T10:49:02.130Z,68.59
2022-12-26T10:49:49.838Z,68.22
2022-12-26T10:50:36.776Z,68.25
2022-12-26T10:51:24.917Z,67.77
2022-12-26T10:52:12.792Z,67.85
2022-12-26T10:53:01.822Z,67.81
2022-12-26T10:53:52.102Z,67.64
2022-12-26T10:54:39.590Z,68.09
2022-12-26T10:55:34.398Z,67.84
2022-12-26T10:56:23.855Z,67.13
2022-12-26T10:57:11.481Z,66.82
2022-12-26T10:58:02.970Z,66.78
2022-12-26T10:58:59.860Z,67.43
2022-12-26T10:59:49.631Z,67.91
2022-12-26T11:00:36.573Z,68.29
2022-12-26T11:01:29.293Z,68.27
2022-12-26T11:02:29.632Z,67.81
2022-12-26T11:03:19.267Z,67.61
2022-12-26T11:04:53.210Z,67.49
2022-12-26T11:06:48.479Z,66.70
2022-12-26T11:07:50.991Z,66.79
2022-12-26T11:08:43.674Z,66.74
2022-12-26T11:09:41.308Z,66.90
2022-12-26T11:10:29.497Z,66.66
2022-12-26T11:11:47.256Z,66.90
2022-12-26T11:12:42.789Z,66.58
2022-12-26T11:13:32.933Z,66.21
2022-12-26T11:14:31.732Z,66.35
2022-12-26T11:15:34.582Z,66.05
2022-12-26T11:16:39.262Z,65.84
2022-12-26T11:17:30.650Z,65.45
2022-12-26T11:18:20.264Z,64.84
2022-12-26T11:19:07.149Z,64.36
2022-12-26T11:20:15.701Z,64.14
2022-12-26T11:21:14.707Z,64.02
2022-12-26T11:22:23.410Z,63.72
2022-12-26T11:23:21.772Z,63.84
2022-12-26T11:24:08.605Z,64.17
2022-12-26T11:25:10.298Z,65.13
2022-12-26T11:25:58.951Z,64.85
2022-12-26T11:26:45.951Z,65.25
2022-12-26T11:27:32.804Z,65.69
2022-12-26T11:28:24.713Z,65.25
2022-12-26T11:29:12.858Z,65.18
2022-12-26T11:30:27.762Z,64.97
2022-12-26T11:31:27.004Z,64.07
2022-12-26T11:32:20.682Z,64.20
2022-12-26T11:33:14.044Z,64.62
2022-12-26T11:34:07.631Z,64.41
2022-12-26T11:34:54.441Z,64.61
2022-12-26T11:36:09.966Z,64.86
2022-12-26T11:36:56.836Z,65.73
2022-12-26T11:37:45.989Z,66.00
2022-12-26T11:38:39.086Z,65.14
2022-12-26T11:39:33.846Z,64.69
2022-12-26T11:40:27.852Z,64.72
2022-12-26T11:41:33.520Z,65.35